createdAt,value
2022-08-30T00:01:07.590Z,16.80
2022-08-30T00:03:45.678Z,16.80
2022-08-30T00:06:15.107Z,16.80
2022-08-30T00:08:43.066Z,16.80
2022-08-30T00:11:13.283Z,16.80
2022-08-30T00:13:42.377Z,16.80
2022-08-30T00:16:10.142Z,16.80
2022-08-30T00:18:37.053Z,16.70
2022-08-30T00:21:05.725Z,16.80
2022-08-30T00:23:33.129Z,16.70
2022-08-30T00:26:00.480Z,16.70
2022-08-30T00:28:27.471Z,16.60
2022-08-30T00:30:54.924Z,16.70
2022-08-30T00:33:22.920Z,16.60
2022-08-30T00:35:50.417Z,16.70
2022-08-30T00:38:17.339Z,16.60
2022-08-30T00:40:45.275Z,16.60
2022-08-30T00:43:16.532Z,16.60
2022-08-30T00:45:47.161Z,16.60
2022-08-30T00:48:14.101Z,16.60
2022-08-30T00:50:46.677Z,16.60
2022-08-30T00:53:20.527Z,16.70
2022-08-30T00:55:49.024Z,16.70
2022-08-30T00:58:21.802Z,16.70
2022-08-30T01:00:55.135Z,16.70
2022-08-30T01:03:22.677Z,16.70
2022-08-30T01:05:51.593Z,16.70
2022-08-30T01:08:22.346Z,16.70
2022-08-30T01:10:51.509Z,16.60
2022-08-30T01:13:19.938Z,16.60
2022-08-30T01:15:50.666Z,16.60
2022-08-30T01:18:18.907Z,16.60
2022-08-30T01:21:22.700Z,16.60
2022-08-30T01:23:53.762Z,16.60
2022-08-30T01:26:22.017Z,16.60
2022-08-30T01:28:55.806Z,16.60
2022-08-30T01:31:23.464Z,16.70
2022-08-30T01:33:51.096Z,16.70
2022-08-30T01:36:20.408Z,16.60
2022-08-30T01:38:57.132Z,16.50
2022-08-30T01:41:25.725Z,16.50
2022-08-30T01:43:55.112Z,16.50
2022-08-30T01:46:24.398Z,16.50
2022-08-30T01:48:54.276Z,16.50
2022-08-30T01:51:24.094Z,16.50
2022-08-30T01:53:51.426Z,16.50
2022-08-30T01:56:19.192Z,16.40
2022-08-30T01:58:46.415Z,16.40
2022-08-30T02:01:15.353Z,16.40
2022-08-30T02:03:44.804Z,16.40
2022-08-30T02:06:13.543Z,16.40
2022-08-30T02:08:41.590Z,16.30
2022-08-30T02:11:09.537Z,16.30
2022-08-30T02:13:37.788Z,16.30
2022-08-30T02:16:06.146Z,16.20
2022-08-30T02:18:34.711Z,16.20
2022-08-30T02:21:01.780Z,16.20
2022-08-30T02:23:28.816Z,16.20
2022-08-30T02:25:56.086Z,16.20
2022-08-30T02:28:23.103Z,16.20
2022-08-30T02:30:52.671Z,16.20
2022-08-30T02:33:20.679Z,16.20
2022-08-30T02:35:47.581Z,16.10
2022-08-30T02:38:14.616Z,16.10
2022-08-30T02:40:42.047Z,16.10
2022-08-30T02:43:09.077Z,16.10
2022-08-30T02:45:36.014Z,16.10
2022-08-30T02:48:03.653Z,16.10
2022-08-30T02:50:31.213Z,16.10
2022-08-30T02:52:58.079Z,16.10
2022-08-30T02:55:25.362Z,16.10
2022-08-30T02:57:52.249Z,16.10
2022-08-30T03:00:20.800Z,16.00
2022-08-30T03:02:48.104Z,16.10
2022-08-30T03:05:16.742Z,16.00
2022-08-30T03:07:45.774Z,16.00
2022-08-30T03:10:14.102Z,16.10
2022-08-30T03:12:41.878Z,16.00
2022-08-30T03:15:13.273Z,16.10
2022-08-30T03:17:40.956Z,16.10
2022-08-30T03:20:09.729Z,16.10
2022-08-30T03:22:36.788Z,16.00
2022-08-30T03:25:04.638Z,16.10
2022-08-30T03:27:32.357Z,16.10
2022-08-30T03:29:59.210Z,16.10
2022-08-30T03:32:26.208Z,16.20
2022-08-30T03:34:53.223Z,16.20
2022-08-30T03:37:27.262Z,16.20
2022-08-30T03:39:57.582Z,16.30
2022-08-30T03:42:24.903Z,16.20
2022-08-30T03:44:52.116Z,16.20
2022-08-30T03:47:19.165Z,16.30
2022-08-30T03:49:46.689Z,16.30
2022-08-30T03:52:13.659Z,16.30
2022-08-30T03:54:40.536Z,16.30
2022-08-30T03:57:07.464Z,16.30
2022-08-30T03:59:34.327Z,16.30
2022-08-30T04:02:01.419Z,16.40
2022-08-30T04:04:28.640Z,16.30
2022-08-30T04:06:55.516Z,16.30
2022-08-30T04:09:22.426Z,16.30
2022-08-30T04:11:49.421Z,16.30
2022-08-30T04:14:16.518Z,16.40
2022-08-30T04:16:43.674Z,16.30
2022-08-30T04:19:10.807Z,16.20
2022-08-30T04:21:43.052Z,16.30
2022-08-30T04:24:11.178Z,16.20
2022-08-30T04:26:38.110Z,16.20
2022-08-30T04:29:05.279Z,16.10
2022-08-30T04:31:32.543Z,16.10
2022-08-30T04:33:59.675Z,16.00
2022-08-30T04:36:26.692Z,16.00
2022-08-30T04:38:53.529Z,16.00
2022-08-30T04:41:24.384Z,15.90
2022-08-30T04:43:51.377Z,15.90
2022-08-30T04:46:19.457Z,15.90
2022-08-30T04:48:47.138Z,15.90
2022-08-30T04:51:17.188Z,15.80
2022-08-30T04:53:45.159Z,15.70
2022-08-30T04:56:19.573Z,15.70
2022-08-30T04:58:48.675Z,15.70
2022-08-30T05:01:23.767Z,15.70
2022-08-30T05:03:52.230Z,15.70
2022-08-30T05:06:20.021Z,15.70
2022-08-30T05:08:47.641Z,15.80
2022-08-30T05:11:16.566Z,15.70
2022-08-30T05:13:44.320Z,15.80
2022-08-30T05:16:13.411Z,15.80
2022-08-30T05:18:40.481Z,15.90
2022-08-30T05:21:11.165Z,16.00
2022-08-30T05:23:39.574Z,16.20
2022-08-30T05:26:08.686Z,16.30
2022-08-30T05:28:36.652Z,16.50
2022-08-30T05:31:14.033Z,16.60
2022-08-30T05:33:41.922Z,16.80
2022-08-30T05:36:09.902Z,16.90
2022-08-30T05:38:36.813Z,17.00
2022-08-30T05:41:08.349Z,17.10
2022-08-30T05:43:38.580Z,17.20
2022-08-30T05:46:12.560Z,17.40
2022-08-30T05:48:40.525Z,17.60
2022-08-30T05:51:17.570Z,17.80
2022-08-30T05:53:45.798Z,17.90
2022-08-30T05:56:14.595Z,18.10
2022-08-30T05:58:42.329Z,18.20
2022-08-30T06:01:19.670Z,18.30
2022-08-30T06:03:46.497Z,18.40
2022-08-30T06:06:13.407Z,18.40
2022-08-30T06:08:40.312Z,18.30
2022-08-30T06:11:07.101Z,18.10
2022-08-30T06:13:34.517Z,18.10
2022-08-30T06:16:01.366Z,17.90
2022-08-30T06:18:29.074Z,17.80
2022-08-30T06:20:55.875Z,17.70
2022-08-30T06:23:22.998Z,17.60
2022-08-30T06:25:49.958Z,17.50
2022-08-30T06:28:17.307Z,17.50
2022-08-30T06:30:44.260Z,17.60
2022-08-30T06:33:11.770Z,17.60
2022-08-30T06:35:56.795Z,17.90
2022-08-30T06:38:26.833Z,18.40
2022-08-30T06:40:53.623Z,18.80
2022-08-30T06:43:20.889Z,19.20
2022-08-30T06:45:48.093Z,19.60
2022-08-30T06:48:15.014Z,19.90
2022-08-30T06:50:42.467Z,20.20
2022-08-30T06:53:09.975Z,20.50
2022-08-30T06:55:37.383Z,20.80
2022-08-30T06:58:04.918Z,21.00
2022-08-30T07:00:32.018Z,21.00
2022-08-30T07:02:59.274Z,21.40
2022-08-30T07:05:26.206Z,21.60
2022-08-30T07:07:55.838Z,21.80
2022-08-30T07:10:22.781Z,21.70
2022-08-30T07:12:52.380Z,21.90
2022-08-30T07:15:23.177Z,22.10
2022-08-30T07:18:08.718Z,22.20
2022-08-30T07:20:40.568Z,22.40
2022-08-30T07:23:08.884Z,22.50
2022-08-30T07:25:40.774Z,22.40
2022-08-30T07:28:08.831Z,22.40
2022-08-30T07:30:36.356Z,22.20
2022-08-30T07:33:03.791Z,22.30
2022-08-30T07:35:31.585Z,22.30
2022-08-30T07:37:59.065Z,22.50
2022-08-30T07:40:26.843Z,22.70
2022-08-30T07:42:53.950Z,22.80
2022-08-30T07:45:21.285Z,22.80
2022-08-30T07:47:48.164Z,22.90
2022-08-30T07:50:15.050Z,23.00
2022-08-30T07:52:41.988Z,23.10
2022-08-30T07:55:10.075Z,23.40
2022-08-30T07:57:37.210Z,23.40
2022-08-30T08:00:06.414Z,23.30
2022-08-30T08:02:40.798Z,23.40
2022-08-30T08:05:10.300Z,23.60
2022-08-30T08:07:39.851Z,23.80
2022-08-30T08:10:07.214Z,23.90
2022-08-30T08:12:34.894Z,24.10
2022-08-30T08:15:04.212Z,24.20
2022-08-30T08:17:35.190Z,23.90
2022-08-30T08:20:02.686Z,24.20
2022-08-30T08:22:29.504Z,24.30
2022-08-30T08:24:56.604Z,24.20
2022-08-30T08:27:24.744Z,24.30
2022-08-30T08:29:51.680Z,24.50
2022-08-30T08:32:18.540Z,24.80
2022-08-30T08:34:45.352Z,24.90
2022-08-30T08:37:12.206Z,25.20
2022-08-30T08:39:39.071Z,25.10
2022-08-30T08:42:11.641Z,25.20
2022-08-30T08:45:00.247Z,25.30
2022-08-30T08:47:40.034Z,25.50
2022-08-30T08:50:20.491Z,25.20
2022-08-30T08:53:36.180Z,25.30
2022-08-30T08:56:12.531Z,25.40
2022-08-30T08:58:52.299Z,25.40
2022-08-30T09:01:22.694Z,25.70
2022-08-30T09:03:50.428Z,25.80
2022-08-30T09:06:49.179Z,25.80
2022-08-30T09:09:20.570Z,25.80
2022-08-30T09:11:48.213Z,26.00
2022-08-30T09:14:20.710Z,26.00
2022-08-30T09:16:57.116Z,26.40
2022-08-30T09:19:40.604Z,26.50
2022-08-30T09:22:46.904Z,26.30
2022-08-30T09:25:22.368Z,26.30
2022-08-30T09:27:52.065Z,26.10
2022-08-30T09:30:21.371Z,26.00
2022-08-30T09:33:07.702Z,26.00
2022-08-30T09:35:37.521Z,26.00
2022-08-30T09:38:10.907Z,26.10
2022-08-30T09:40:43.138Z,26.30
2022-08-30T09:43:32.879Z,26.40
2022-08-30T09:46:02.848Z,26.60
2022-08-30T09:48:34.292Z,26.70
2022-08-30T09:51:11.157Z,26.70
2022-08-30T09:54:17.495Z,27.00
2022-08-30T09:56:52.080Z,27.00
2022-08-30T09:59:49.005Z,26.70
2022-08-30T10:02:55.230Z,26.70
2022-08-30T10:05:35.309Z,26.90
2022-08-30T10:08:42.422Z,27.20
2022-08-30T10:11:22.093Z,27.70
2022-08-30T10:14:25.078Z,27.70
2022-08-30T10:17:06.091Z,27.40
2022-08-30T10:20:03.200Z,27.80
2022-08-30T10:22:58.648Z,27.80
2022-08-30T10:25:40.021Z,27.80
2022-08-30T10:28:35.186Z,27.90
2022-08-30T10:31:14.723Z,28.10
2022-08-30T10:33:50.967Z,28.30
2022-08-30T10:36:31.151Z,28.30
2022-08-30T10:38:59.408Z,27.90
2022-08-30T10:41:36.348Z,28.20
2022-08-30T10:44:06.628Z,28.50
2022-08-30T10:46:47.956Z,28.50
2022-08-30T10:49:19.705Z,28.40
2022-08-30T10:52:10.041Z,28.40
2022-08-30T10:55:23.674Z,28.60
2022-08-30T10:57:51.827Z,28.50
2022-08-30T11:00:31.754Z,28.50
2022-08-30T11:03:26.759Z,28.50
2022-08-30T11:06:02.278Z,28.60
2022-08-30T11:08:53.648Z,28.70
2022-08-30T11:11:45.915Z,28.90
2022-08-30T11:14:17.558Z,28.90
2022-08-30T11:16:48.469Z,29.00
2022-08-30T11:19:15.312Z,28.90
2022-08-30T11:21:44.195Z,28.80
2022-08-30T11:24:23.805Z,29.20
2022-08-30T11:26:54.711Z,29.60
2022-08-30T11:29:43.909Z,29.90
2022-08-30T11:32:14.443Z,30.20
2022-08-30T11:34:47.433Z,30.40
2022-08-30T11:37:41.200Z,30.30
2022-08-30T11:40:24.590Z,30.30
2022-08-30T11:42:55.338Z,30.10
2022-08-30T11:45:26.756Z,30.20
2022-08-30T11:47:59.886Z,30.20
2022-08-30T11:50:30.422Z,30.10
2022-08-30T11:53:16.126Z,30.70
2022-08-30T11:56:11.968Z,30.70
2022-08-30T11:59:02.678Z,30.10
2022-08-30T12:01:49.884Z,29.90
2022-08-30T12:04:19.549Z,30.20
2022-08-30T12:06:52.401Z,30.20
2022-08-30T12:09:25.039Z,30.60
2022-08-30T12:12:28.800Z,30.80
2022-08-30T12:14:57.607Z,31.00
2022-08-30T12:17:44.789Z,30.80
2022-08-30T12:20:35.023Z,30.70
2022-08-30T12:23:21.277Z,30.70
2022-08-30T12:26:08.913Z,30.50
2022-08-30T12:28:38.567Z,30.80
2022-08-30T12:31:22.075Z,31.10
2022-08-30T12:34:01.484Z,31.40
2022-08-30T12:36:40.073Z,31.50
2022-08-30T12:39:21.064Z,31.60
2022-08-30T12:41:50.601Z,31.50
2022-08-30T12:44:27.884Z,31.60
2022-08-30T12:47:02.509Z,31.70
2022-08-30T12:49:31.861Z,32.20
2022-08-30T12:52:17.420Z,32.20
2022-08-30T12:54:45.382Z,32.30
2022-08-30T12:57:32.423Z,32.20
2022-08-30T13:00:02.410Z,32.00
2022-08-30T13:02:48.240Z,31.90
2022-08-30T13:05:34.473Z,31.80
2022-08-30T13:08:27.493Z,31.50
2022-08-30T13:10:59.677Z,31.10
2022-08-30T13:13:31.910Z,31.40
2022-08-30T13:16:29.390Z,31.60
2022-08-30T13:19:22.571Z,31.60
2022-08-30T13:21:54.537Z,31.70
2022-08-30T13:24:25.203Z,31.70
2022-08-30T13:26:55.548Z,31.70
2022-08-30T13:29:26.333Z,31.50
2022-08-30T13:31:53.729Z,31.60
2022-08-30T13:34:22.561Z,31.70
2022-08-30T13:36:50.802Z,31.70
2022-08-30T13:39:18.130Z,31.70
2022-08-30T13:41:48.957Z,31.90
2022-08-30T13:44:16.265Z,32.00
2022-08-30T13:46:53.981Z,32.20
2022-08-30T13:49:45.463Z,31.90
2022-08-30T13:52:20.833Z,31.60
2022-08-30T13:54:56.575Z,32.00
2022-08-30T14:00:19.123Z,32.00
2022-08-30T14:02:54.153Z,31.50
2022-08-30T14:05:48.162Z,31.10
2022-08-30T14:11:00.397Z,30.80
2022-08-30T14:13:29.302Z,30.90
2022-08-30T14:18:47.258Z,31.70
2022-08-30T14:21:14.209Z,31.60
2022-08-30T14:23:41.742Z,31.40
2022-08-30T14:26:21.004Z,31.30
2022-08-30T14:28:51.460Z,31.00
2022-08-30T14:31:20.175Z,30.80
2022-08-30T14:33:47.744Z,30.60
2022-08-30T14:36:15.848Z,30.40
2022-08-30T14:38:44.918Z,29.90
2022-08-30T14:41:12.171Z,29.70
2022-08-30T14:43:42.796Z,29.30
2022-08-30T14:46:10.880Z,29.10
2022-08-30T14:48:38.876Z,29.10
2022-08-30T14:51:14.114Z,28.90
2022-08-30T14:53:41.087Z,28.70
2022-08-30T14:56:13.843Z,28.70
2022-08-30T14:58:40.674Z,29.00
2022-08-30T15:01:09.765Z,29.00
2022-08-30T15:03:38.705Z,29.00
2022-08-30T15:06:06.230Z,29.10
2022-08-30T15:08:34.330Z,29.20
2022-08-30T15:11:02.171Z,29.50
2022-08-30T15:13:28.980Z,29.60
2022-08-30T15:15:56.942Z,29.50
2022-08-30T15:18:24.534Z,29.30
2022-08-30T15:20:51.653Z,29.20
2022-08-30T15:23:19.437Z,28.90
2022-08-30T15:25:51.680Z,28.60
2022-08-30T15:28:19.472Z,28.70
2022-08-30T15:30:46.999Z,28.40
2022-08-30T15:33:14.758Z,28.30
2022-08-30T15:35:41.851Z,28.20
2022-08-30T15:38:09.089Z,28.00
2022-08-30T15:40:39.407Z,28.10
2022-08-30T15:43:06.686Z,28.00
2022-08-30T15:45:33.668Z,27.80
2022-08-30T15:48:01.377Z,27.70
2022-08-30T15:50:29.346Z,27.70
2022-08-30T15:52:56.787Z,27.50
2022-08-30T15:55:23.749Z,27.40
2022-08-30T15:57:52.035Z,27.60
2022-08-30T16:00:19.570Z,27.60
2022-08-30T16:02:49.246Z,27.40
2022-08-30T16:05:17.792Z,27.20
2022-08-30T16:07:46.800Z,27.30
2022-08-30T16:10:15.991Z,27.20
2022-08-30T16:12:42.858Z,27.30
2022-08-30T16:15:10.380Z,27.30
2022-08-30T16:17:38.313Z,27.40
2022-08-30T16:20:07.412Z,27.30
2022-08-30T16:22:35.429Z,27.20
2022-08-30T16:25:04.775Z,27.00
2022-08-30T16:27:34.309Z,26.90
2022-08-30T16:30:01.751Z,26.90
2022-08-30T16:32:28.731Z,26.90
2022-08-30T16:34:55.701Z,26.90
2022-08-30T16:37:22.637Z,26.70
2022-08-30T16:39:49.626Z,26.70
2022-08-30T16:42:20.808Z,26.50
2022-08-30T16:44:49.769Z,26.50
2022-08-30T16:47:17.262Z,26.60
2022-08-30T16:49:44.291Z,26.70
2022-08-30T16:52:14.500Z,26.80
2022-08-30T16:54:41.521Z,27.10
2022-08-30T16:57:08.413Z,27.30
2022-08-30T16:59:37.228Z,27.40
2022-08-30T17:02:04.182Z,27.30
2022-08-30T17:04:31.449Z,27.20
2022-08-30T17:06:58.773Z,26.70
2022-08-30T17:09:25.721Z,26.30
2022-08-30T17:11:53.057Z,26.00
2022-08-30T17:14:28.021Z,25.60
2022-08-30T17:16:58.439Z,25.30
2022-08-30T17:19:28.601Z,25.00
2022-08-30T17:21:56.817Z,24.70
2022-08-30T17:24:25.091Z,24.40
2022-08-30T17:26:52.513Z,24.20
2022-08-30T17:29:19.890Z,24.00
2022-08-30T17:31:51.406Z,23.90
2022-08-30T17:34:22.005Z,23.80
2022-08-30T17:36:51.299Z,23.70
2022-08-30T17:39:18.349Z,23.60
2022-08-30T17:41:50.016Z,23.50
2022-08-30T17:44:19.327Z,23.40
2022-08-30T17:46:46.711Z,23.30
2022-08-30T17:49:14.082Z,23.20
2022-08-30T17:51:42.976Z,23.10
2022-08-30T17:54:12.975Z,23.00
2022-08-30T17:56:41.181Z,23.10
2022-08-30T17:59:11.848Z,23.10
2022-08-30T18:01:45.849Z,23.10
2022-08-30T18:04:15.221Z,23.00
2022-08-30T18:06:47.269Z,23.00
2022-08-30T18:09:14.291Z,22.90
2022-08-30T18:11:41.451Z,22.80
2022-08-30T18:14:11.430Z,22.60
2022-08-30T18:16:53.380Z,22.50
2022-08-30T18:19:24.384Z,22.30
2022-08-30T18:21:53.036Z,22.10
2022-08-30T18:24:21.422Z,22.00
2022-08-30T18:26:52.100Z,21.90
2022-08-30T18:29:29.312Z,21.80
2022-08-30T18:32:02.870Z,21.60
2022-08-30T18:34:31.792Z,21.60
2022-08-30T18:37:00.363Z,21.50
2022-08-30T18:39:34.512Z,21.40
2022-08-30T18:42:08.834Z,21.30
2022-08-30T18:44:38.679Z,21.20
2022-08-30T18:47:11.106Z,21.20
2022-08-30T18:49:38.339Z,21.10
2022-08-30T18:52:08.345Z,21.00
2022-08-30T18:54:41.720Z,20.90
2022-08-30T18:57:12.070Z,20.80
2022-08-30T18:59:41.921Z,20.80
2022-08-30T19:02:16.378Z,20.80
2022-08-30T19:04:48.018Z,20.70
2022-08-30T19:07:20.772Z,20.70
2022-08-30T19:09:49.246Z,20.60
2022-08-30T19:12:19.024Z,20.50
2022-08-30T19:14:49.974Z,20.50
2022-08-30T19:17:18.239Z,20.40
2022-08-30T19:19:49.282Z,20.30
2022-08-30T19:22:24.028Z,20.30
2022-08-30T19:25:00.464Z,20.30
2022-08-30T19:27:39.844Z,20.20
2022-08-30T19:30:29.670Z,20.20
2022-08-30T19:32:57.793Z,20.00
2022-08-30T19:35:25.956Z,20.00
2022-08-30T19:37:55.927Z,19.90
2022-08-30T19:40:26.313Z,19.90
2022-08-30T19:42:54.445Z,19.90
2022-08-30T19:45:22.951Z,19.90
2022-08-30T19:47:53.468Z,19.80
2022-08-30T19:50:21.961Z,19.80
2022-08-30T19:52:54.170Z,19.90
2022-08-30T19:55:28.424Z,19.80
2022-08-30T19:57:57.955Z,19.80
2022-08-30T20:00:25.219Z,19.70
2022-08-30T20:02:54.776Z,19.70
2022-08-30T20:05:22.226Z,19.70
2022-08-30T20:07:54.243Z,19.70
2022-08-30T20:10:26.176Z,19.60
2022-08-30T20:12:56.390Z,19.60
2022-08-30T20:15:23.718Z,19.60
2022-08-30T20:18:14.224Z,19.60
2022-08-30T20:20:49.637Z,19.50
2022-08-30T20:23:19.729Z,19.50
2022-08-30T20:25:53.003Z,19.50
2022-08-30T20:28:21.099Z,19.50
2022-08-30T20:30:51.812Z,19.50
2022-08-30T20:33:22.200Z,19.40
2022-08-30T20:35:51.647Z,19.40
2022-08-30T20:38:23.780Z,19.40
2022-08-30T20:40:58.604Z,19.30
2022-08-30T20:43:28.115Z,19.30
2022-08-30T20:45:59.099Z,19.30
2022-08-30T20:48:28.857Z,19.20
2022-08-30T20:50:56.477Z,19.10
2022-08-30T20:53:23.566Z,19.10
2022-08-30T20:55:50.491Z,19.00
2022-08-30T20:58:17.491Z,19.00
2022-08-30T21:00:50.102Z,19.00
2022-08-30T21:03:26.092Z,18.90
2022-08-30T21:05:56.324Z,18.90
2022-08-30T21:08:23.316Z,18.90
2022-08-30T21:10:50.635Z,18.80
2022-08-30T21:13:18.312Z,18.80
2022-08-30T21:15:46.235Z,18.80
2022-08-30T21:18:14.483Z,18.80
2022-08-30T21:20:41.902Z,18.80
2022-08-30T21:23:09.392Z,18.70
2022-08-30T21:25:42.181Z,18.70
2022-08-30T21:28:09.151Z,18.70
2022-08-30T21:30:37.230Z,18.70
2022-08-30T21:33:05.880Z,18.70
2022-08-30T21:35:51.281Z,18.60
2022-08-30T21:38:20.106Z,18.70
2022-08-30T21:40:50.294Z,18.60
2022-08-30T21:43:17.568Z,18.60
2022-08-30T21:45:45.552Z,18.60
2022-08-30T21:48:13.753Z,18.60
2022-08-30T21:50:44.488Z,18.60
2022-08-30T21:53:12.066Z,18.40
2022-08-30T21:55:43.688Z,18.40
2022-08-30T21:58:10.895Z,18.40
2022-08-30T22:00:39.227Z,18.50
2022-08-30T22:03:06.120Z,18.40
2022-08-30T22:05:33.168Z,18.40
2022-08-30T22:08:00.046Z,18.40
2022-08-30T22:10:31.145Z,18.30
2022-08-30T22:12:59.931Z,18.30
2022-08-30T22:15:27.006Z,18.30
2022-08-30T22:17:55.341Z,18.20
2022-08-30T22:20:22.186Z,18.30
2022-08-30T22:22:50.923Z,18.20
2022-08-30T22:25:17.926Z,18.20
2022-08-30T22:27:44.780Z,18.20
2022-08-30T22:30:13.364Z,18.20
2022-08-30T22:32:40.948Z,18.20
2022-08-30T22:35:08.243Z,18.10
2022-08-30T22:37:35.261Z,18.10
2022-08-30T22:40:02.316Z,18.10
2022-08-30T22:42:29.433Z,18.00
2022-08-30T22:44:56.481Z,18.00
2022-08-30T22:47:23.414Z,18.00
2022-08-30T22:49:50.285Z,17.90
2022-08-30T22:52:17.136Z,17.90
2022-08-30T22:54:49.554Z,17.90
2022-08-30T22:57:19.398Z,17.80
2022-08-30T22:59:46.344Z,17.80
2022-08-30T23:02:13.296Z,17.80
2022-08-30T23:04:40.241Z,17.80
2022-08-30T23:07:07.084Z,17.80
2022-08-30T23:09:34.022Z,17.80
2022-08-30T23:12:01.374Z,17.70
2022-08-30T23:14:28.310Z,17.70
2022-08-30T23:16:55.897Z,17.70
2022-08-30T23:19:23.689Z,17.70
2022-08-30T23:21:51.040Z,17.60
2022-08-30T23:24:36.359Z,17.60
2022-08-30T23:27:23.114Z,17.50
2022-08-30T23:30:08.687Z,17.60
2022-08-30T23:32:54.653Z,17.60
2022-08-30T23:35:40.716Z,17.50
2022-08-30T23:38:26.081Z,17.50
2022-08-30T23:41:11.813Z,17.50
2022-08-30T23:43:57.222Z,17.50
2022-08-30T23:46:42.588Z,17.40
2022-08-30T23:49:28.272Z,17.40
2022-08-30T23:52:13.953Z,17.40
2022-08-30T23:54:59.405Z,17.30
2022-08-30T23:57:46.022Z,17.30
